createdAt,value
2023-03-29T00:00:05.819Z,4.8
2023-03-29T00:01:34.770Z,4.8
2023-03-29T00:02:32.194Z,4.8
2023-03-29T00:03:45.054Z,4.8
2023-03-29T00:04:57.816Z,4.8
2023-03-29T00:06:10.830Z,4.8
2023-03-29T00:07:24.019Z,4.8
2023-03-29T00:08:36.836Z,4.8
2023-03-29T00:09:50.164Z,4.8
2023-03-29T00:11:03.007Z,4.8
2023-03-29T00:12:15.805Z,4.8
2023-03-29T00:13:29.042Z,4.8
2023-03-29T00:14:41.856Z,4.8
2023-03-29T00:15:54.720Z,4.8
2023-03-29T00:17:07.933Z,4.8
2023-03-29T00:18:20.863Z,4.8
2023-03-29T00:19:33.890Z,4.8
2023-03-29T00:20:46.906Z,4.8
2023-03-29T00:21:59.845Z,4.8
2023-03-29T00:23:12.845Z,4.8
2023-03-29T00:24:25.903Z,4.8
2023-03-29T00:25:38.812Z,4.8
2023-03-29T00:26:51.859Z,4.8
2023-03-29T00:28:04.850Z,4.8
2023-03-29T00:29:17.818Z,4.8
2023-03-29T00:30:30.872Z,4.8
2023-03-29T00:31:44.030Z,4.8
2023-03-29T00:32:56.902Z,4.8
2023-03-29T00:34:09.808Z,4.8
2023-03-29T00:35:22.882Z,4.8
2023-03-29T00:36:35.882Z,4.8
2023-03-29T00:37:48.860Z,4.8
2023-03-29T00:39:02.067Z,4.8
2023-03-29T00:40:14.895Z,4.8
2023-03-29T00:41:27.699Z,4.8
2023-03-29T00:42:40.861Z,4.8
2023-03-29T00:43:53.859Z,4.8
2023-03-29T00:45:06.733Z,4.8
2023-03-29T00:46:20.205Z,4.8
2023-03-29T00:47:32.840Z,4.8
2023-03-29T00:48:45.857Z,4.8
2023-03-29T00:49:59.422Z,4.7
2023-03-29T00:51:11.880Z,4.7
2023-03-29T00:52:24.994Z,4.7
2023-03-29T00:53:38.057Z,4.7
2023-03-29T00:54:51.079Z,4.9
2023-03-29T00:56:03.876Z,4.9
2023-03-29T00:57:16.794Z,4.9
2023-03-29T00:58:29.735Z,4.8
2023-03-29T00:59:42.891Z,4.9
2023-03-29T01:00:55.893Z,4.9
2023-03-29T01:02:08.897Z,4.9
2023-03-29T01:03:21.971Z,4.9
2023-03-29T01:04:34.928Z,4.9
2023-03-29T01:05:48.016Z,4.9
2023-03-29T01:07:00.974Z,4.9
2023-03-29T01:08:14.016Z,4.9
2023-03-29T01:09:26.876Z,4.9
2023-03-29T01:10:39.886Z,4.9
2023-03-29T01:11:52.870Z,4.9
2023-03-29T01:13:05.896Z,4.9
2023-03-29T01:14:18.868Z,4.9
2023-03-29T01:15:31.945Z,4.9
2023-03-29T01:16:44.962Z,4.9
2023-03-29T01:17:57.761Z,4.9
2023-03-29T01:19:10.992Z,4.9
2023-03-29T01:20:23.873Z,4.9
2023-03-29T01:21:37.017Z,4.9
2023-03-29T01:22:49.915Z,5
2023-03-29T01:24:02.848Z,5
2023-03-29T01:25:15.840Z,5
2023-03-29T01:26:28.895Z,5
2023-03-29T01:27:41.905Z,5
2023-03-29T01:28:55.201Z,5
2023-03-29T01:30:07.895Z,5
2023-03-29T01:31:20.983Z,5
2023-03-29T01:32:33.616Z,5
2023-03-29T01:33:47.068Z,5
2023-03-29T01:34:59.763Z,5
2023-03-29T01:36:13.103Z,5
2023-03-29T01:37:25.907Z,5
2023-03-29T01:38:38.720Z,5
2023-03-29T01:39:51.880Z,5
2023-03-29T01:41:05.066Z,5
2023-03-29T01:42:17.912Z,5
2023-03-29T01:43:30.896Z,5.2
2023-03-29T01:44:43.922Z,5.2
2023-03-29T01:45:56.931Z,5.2
2023-03-29T01:47:09.737Z,5.2
2023-03-29T01:48:22.723Z,5.2
2023-03-29T01:49:35.962Z,5.2
2023-03-29T01:50:48.896Z,5.2
2023-03-29T01:52:01.909Z,5.2
2023-03-29T01:53:15.072Z,5.2
2023-03-29T01:54:27.928Z,5.2
2023-03-29T01:55:40.959Z,5.2
2023-03-29T01:56:53.943Z,5.2
2023-03-29T01:58:06.771Z,5.1
2023-03-29T01:59:19.996Z,5.1
2023-03-29T02:00:32.900Z,5.1
2023-03-29T02:01:45.902Z,5.1
2023-03-29T02:02:59.080Z,5.1
2023-03-29T02:04:11.731Z,5.1
2023-03-29T02:05:24.937Z,5.1
2023-03-29T02:06:37.887Z,5.3
2023-03-29T02:07:51.109Z,5.3
2023-03-29T02:09:03.922Z,5.3
2023-03-29T02:10:16.755Z,5.3
2023-03-29T02:11:30.127Z,5.3
2023-03-29T02:12:43.128Z,5.3
2023-03-29T02:13:56.086Z,5.3
2023-03-29T02:15:08.883Z,5.3
2023-03-29T02:16:21.948Z,5.3
2023-03-29T02:17:35.005Z,5.3
2023-03-29T02:18:48.324Z,5.3
2023-03-29T02:20:00.922Z,5.3
2023-03-29T02:21:13.913Z,5.3
2023-03-29T02:22:26.895Z,5.3
2023-03-29T02:23:39.944Z,5.3
2023-03-29T02:24:52.933Z,5.3
2023-03-29T02:26:05.955Z,5.3
2023-03-29T02:27:18.917Z,5.4
2023-03-29T02:28:32.263Z,5.4
2023-03-29T02:29:44.952Z,5.4
2023-03-29T02:30:57.942Z,5.4
2023-03-29T02:32:11.111Z,5.4
2023-03-29T02:33:23.942Z,5.4
2023-03-29T02:34:36.934Z,5.4
2023-03-29T02:35:49.943Z,5.4
2023-03-29T02:38:16.095Z,5.4
2023-03-29T02:39:29.454Z,5.4
2023-03-29T02:40:41.990Z,5.4
2023-03-29T02:41:54.931Z,5.4
2023-03-29T02:43:07.957Z,5.4
2023-03-29T02:44:20.953Z,5.4
2023-03-29T02:45:33.924Z,5.4
2023-03-29T02:46:46.975Z,5.4
2023-03-29T02:47:59.954Z,5.4
2023-03-29T02:49:13.192Z,5.4
2023-03-29T02:50:26.132Z,5.4
2023-03-29T02:51:38.917Z,5.4
2023-03-29T02:52:51.923Z,5.4
2023-03-29T02:54:04.964Z,5.4
2023-03-29T02:55:18.245Z,5.4
2023-03-29T02:56:31.120Z,5.4
2023-03-29T02:57:44.064Z,5.5
2023-03-29T02:58:56.981Z,5.6
2023-03-29T03:00:09.980Z,5.6
2023-03-29T03:01:22.809Z,5.6
2023-03-29T03:02:36.168Z,5.6
2023-03-29T03:03:49.004Z,5.6
2023-03-29T03:05:01.968Z,5.6
2023-03-29T03:06:14.947Z,5.6
2023-03-29T03:07:27.897Z,5.6
2023-03-29T03:08:40.889Z,5.6
2023-03-29T03:09:53.980Z,5.5
2023-03-29T03:11:07.037Z,5.5
2023-03-29T03:12:19.994Z,5.5
2023-03-29T03:13:32.809Z,5.5
2023-03-29T03:14:46.029Z,5.5
2023-03-29T03:15:58.993Z,5.5
2023-03-29T03:17:12.680Z,5.5
2023-03-29T03:18:25.319Z,5.5
2023-03-29T03:19:38.636Z,5.5
2023-03-29T03:20:50.986Z,5.5
2023-03-29T03:22:03.953Z,5.7
2023-03-29T03:23:16.826Z,5.7
2023-03-29T03:24:29.972Z,5.7
2023-03-29T03:25:42.961Z,5.7
2023-03-29T03:26:55.872Z,5.7
2023-03-29T03:28:08.789Z,5.7
2023-03-29T03:29:22.054Z,5.7
2023-03-29T03:30:35.000Z,5.7
2023-03-29T03:31:48.160Z,5.7
2023-03-29T03:33:00.963Z,5.7
2023-03-29T03:34:14.001Z,5.7
2023-03-29T03:35:27.013Z,5.7
2023-03-29T03:36:40.143Z,5.7
2023-03-29T03:37:52.978Z,5.7
2023-03-29T03:39:06.344Z,5.7
2023-03-29T03:40:18.934Z,5.7
2023-03-29T03:41:31.972Z,5.7
2023-03-29T03:42:44.960Z,5.7
2023-03-29T03:43:57.979Z,5.7
2023-03-29T03:45:10.943Z,5.7
2023-03-29T03:46:23.989Z,5.7
2023-03-29T03:47:36.767Z,5.8
2023-03-29T03:48:50.002Z,5.8
2023-03-29T03:50:03.018Z,5.8
2023-03-29T03:51:16.041Z,5.8
2023-03-29T03:52:29.156Z,5.8
2023-03-29T03:53:42.004Z,5.8
2023-03-29T03:54:54.940Z,5.9
2023-03-29T03:56:07.996Z,5.9
2023-03-29T03:57:21.020Z,5.9
2023-03-29T03:58:34.137Z,5.9
2023-03-29T03:59:46.986Z,5.9
2023-03-29T04:01:00.240Z,5.9
2023-03-29T04:02:12.840Z,5.9
2023-03-29T04:03:26.075Z,5.9
2023-03-29T04:04:38.827Z,5.9
2023-03-29T04:05:52.002Z,5.9
2023-03-29T04:07:04.979Z,5.9
2023-03-29T04:08:17.698Z,5.9
2023-03-29T04:09:31.737Z,5.9
2023-03-29T04:10:44.148Z,5.9
2023-03-29T04:11:57.024Z,5.9
2023-03-29T04:13:09.999Z,5.9
2023-03-29T04:14:22.975Z,5.9
2023-03-29T04:15:36.261Z,5.9
2023-03-29T04:16:49.240Z,5.9
2023-03-29T04:18:01.987Z,5.9
2023-03-29T04:19:15.038Z,5.9
2023-03-29T04:20:27.889Z,5.9
2023-03-29T04:21:40.863Z,5.9
2023-03-29T04:22:53.737Z,5.9
2023-03-29T04:24:06.874Z,5.9
2023-03-29T04:25:19.992Z,5.9
2023-03-29T04:26:32.829Z,5.9
2023-03-29T04:27:45.888Z,5.9
2023-03-29T04:28:58.888Z,5.9
2023-03-29T04:30:11.874Z,5.9
2023-03-29T04:31:24.931Z,5.9
2023-03-29T04:32:37.887Z,5.8
2023-03-29T04:33:50.869Z,5.8
2023-03-29T04:35:03.862Z,5.8
2023-03-29T04:36:17.190Z,5.8
2023-03-29T04:37:29.886Z,5.8
2023-03-29T04:38:46.088Z,5.7
2023-03-29T04:39:56.065Z,5.7
2023-03-29T04:41:08.839Z,5.7
2023-03-29T04:42:21.868Z,5.7
2023-03-29T04:43:34.890Z,5.7
2023-03-29T04:44:47.877Z,5.7
2023-03-29T04:46:00.935Z,5.7
2023-03-29T04:47:13.857Z,5.6
2023-03-29T04:48:26.854Z,5.5
2023-03-29T04:49:39.890Z,5.5
2023-03-29T04:50:52.894Z,5.6
2023-03-29T04:52:05.898Z,5.5
2023-03-29T04:53:18.874Z,5.4
2023-03-29T04:54:31.857Z,5.4
2023-03-29T04:55:44.951Z,5.4
2023-03-29T04:56:57.920Z,5.4
2023-03-29T04:58:10.894Z,5.4
2023-03-29T04:59:23.891Z,5.4
2023-03-29T05:00:37.018Z,5.4
2023-03-29T05:01:49.928Z,5.3
2023-03-29T05:03:02.902Z,5.3
2023-03-29T05:04:16.089Z,5.3
2023-03-29T05:05:29.041Z,5.3
2023-03-29T05:06:41.777Z,5.3
2023-03-29T05:07:54.933Z,5.3
2023-03-29T05:09:07.880Z,5.3
2023-03-29T05:10:20.888Z,5.3
2023-03-29T05:11:33.911Z,5.3
2023-03-29T05:12:47.017Z,5.3
2023-03-29T05:13:59.893Z,5.3
2023-03-29T05:15:12.890Z,5.3
2023-03-29T05:16:25.904Z,5.3
2023-03-29T05:17:39.103Z,5.3
2023-03-29T05:18:51.923Z,5.3
2023-03-29T05:20:04.933Z,5.3
2023-03-29T05:21:17.948Z,5.4
2023-03-29T05:22:31.435Z,5.4
2023-03-29T05:23:43.892Z,5.4
2023-03-29T05:24:56.888Z,5.4
2023-03-29T05:26:09.963Z,5.4
2023-03-29T05:27:22.928Z,5.4
2023-03-29T05:28:35.904Z,5.4
2023-03-29T05:29:48.897Z,5.4
2023-03-29T05:31:02.227Z,5.4
2023-03-29T05:32:14.981Z,5.4
2023-03-29T05:33:28.023Z,5.4
2023-03-29T05:34:41.035Z,5.4
2023-03-29T05:35:53.914Z,5.4
2023-03-29T05:37:06.915Z,5.6
2023-03-29T05:38:19.916Z,5.6
2023-03-29T05:39:33.390Z,5.6
2023-03-29T05:40:45.891Z,5.6
2023-03-29T05:41:59.086Z,5.6
2023-03-29T05:43:11.896Z,5.6
2023-03-29T05:44:24.916Z,5.6
2023-03-29T05:45:38.127Z,5.6
2023-03-29T05:46:50.910Z,5.6
2023-03-29T05:48:04.060Z,5.5
2023-03-29T05:49:16.993Z,5.5
2023-03-29T05:50:29.879Z,5.5
2023-03-29T05:51:42.941Z,5.6
2023-03-29T05:52:55.920Z,5.7
2023-03-29T05:54:08.875Z,5.7
2023-03-29T05:55:22.064Z,5.7
2023-03-29T05:56:34.963Z,5.7
2023-03-29T05:57:47.929Z,5.7
2023-03-29T05:59:01.051Z,5.7
2023-03-29T06:00:13.896Z,5.7
2023-03-29T06:01:26.977Z,5.7
2023-03-29T06:02:39.717Z,5.8
2023-03-29T06:03:53.021Z,5.8
2023-03-29T06:05:05.945Z,5.8
2023-03-29T06:06:18.926Z,5.8
2023-03-29T06:07:31.966Z,5.8
2023-03-29T06:08:44.997Z,5.8
2023-03-29T06:09:57.773Z,5.8
2023-03-29T06:11:10.959Z,5.9
2023-03-29T06:12:23.981Z,5.9
2023-03-29T06:13:36.967Z,5.9
2023-03-29T06:14:49.922Z,5.9
2023-03-29T06:16:02.949Z,5.9
2023-03-29T06:17:15.979Z,5.9
2023-03-29T06:18:29.079Z,5.9
2023-03-29T06:19:41.985Z,5.9
2023-03-29T06:20:54.971Z,5.9
2023-03-29T06:22:07.889Z,6.1
2023-03-29T06:23:21.099Z,6.1
2023-03-29T06:24:33.912Z,6.1
2023-03-29T06:25:46.930Z,6.1
2023-03-29T06:26:59.958Z,6.1
2023-03-29T06:28:12.946Z,6.1
2023-03-29T06:29:26.107Z,6.2
2023-03-29T06:30:38.902Z,6.2
2023-03-29T06:31:51.983Z,6.2
2023-03-29T06:33:05.018Z,6.2
2023-03-29T06:34:18.198Z,6.2
2023-03-29T06:35:31.039Z,6.3
2023-03-29T06:36:43.975Z,6.3
2023-03-29T06:37:56.976Z,6.3
2023-03-29T06:39:10.053Z,6.3
2023-03-29T06:40:23.144Z,6.3
2023-03-29T06:41:35.981Z,6.4
2023-03-29T06:42:48.969Z,6.4
2023-03-29T06:44:02.017Z,6.4
2023-03-29T06:45:14.994Z,6.4
2023-03-29T06:46:27.798Z,6.4
2023-03-29T06:47:41.328Z,6.4
2023-03-29T06:48:53.976Z,6.6
2023-03-29T06:50:06.995Z,6.6
2023-03-29T06:51:22.637Z,6.6
2023-03-29T06:52:33.156Z,6.5
2023-03-29T06:53:45.984Z,6.7
2023-03-29T06:56:12.131Z,6.7
2023-03-29T06:57:25.080Z,6.7
2023-03-29T06:58:38.024Z,6.8
2023-03-29T06:59:50.985Z,6.8
2023-03-29T07:01:04.247Z,6.8
2023-03-29T07:02:17.011Z,6.8
2023-03-29T07:03:29.828Z,6.9
2023-03-29T07:04:43.036Z,7
2023-03-29T07:05:56.042Z,7
2023-03-29T07:07:09.568Z,6.9
2023-03-29T07:08:22.146Z,6.9
2023-03-29T07:09:34.989Z,7.1
2023-03-29T07:10:47.837Z,7.1
2023-03-29T07:12:00.849Z,7.1
2023-03-29T07:13:13.963Z,7.1
2023-03-29T07:14:27.010Z,7.1
2023-03-29T07:15:39.958Z,7.1
2023-03-29T07:16:53.296Z,7.1
2023-03-29T07:18:06.017Z,7.1
2023-03-29T07:19:19.019Z,7.1
2023-03-29T07:20:31.990Z,7.2
2023-03-29T07:21:44.904Z,7.2
2023-03-29T07:22:58.426Z,7.2
2023-03-29T07:24:11.310Z,7.2
2023-03-29T07:25:24.131Z,7.2
2023-03-29T07:26:36.995Z,7.2
2023-03-29T07:27:49.876Z,7.2
2023-03-29T07:29:02.956Z,7.2
2023-03-29T07:30:15.990Z,7.3
2023-03-29T07:31:29.045Z,7.3
2023-03-29T07:32:41.915Z,7.3
2023-03-29T07:33:55.030Z,7.3
2023-03-29T07:35:07.972Z,7.3
2023-03-29T07:36:21.269Z,7.3
2023-03-29T07:37:34.005Z,7.5
2023-03-29T07:38:46.964Z,7.5
2023-03-29T07:40:00.170Z,7.5
2023-03-29T07:41:12.927Z,7.5
2023-03-29T07:42:25.975Z,7.5
2023-03-29T07:43:38.788Z,7.5
2023-03-29T07:44:51.924Z,7.5
2023-03-29T07:46:05.160Z,7.6
2023-03-29T07:47:17.922Z,7.6
2023-03-29T07:48:30.820Z,7.6
2023-03-29T07:49:43.944Z,7.6
2023-03-29T07:50:56.953Z,7.6
2023-03-29T07:52:09.809Z,7.7
2023-03-29T07:53:23.339Z,7.7
2023-03-29T07:54:35.945Z,7.7
2023-03-29T07:55:48.958Z,7.7
2023-03-29T07:57:02.299Z,7.7
2023-03-29T07:58:14.703Z,7.7
2023-03-29T07:59:28.014Z,7.9
2023-03-29T08:00:40.689Z,7.9
2023-03-29T08:04:20.134Z,7.9
2023-03-29T08:05:40.459Z,7.9
2023-03-29T08:06:45.841Z,7.9
2023-03-29T08:07:58.844Z,7.9
2023-03-29T08:09:11.949Z,7.9
2023-03-29T08:10:24.943Z,7.9
2023-03-29T08:11:37.955Z,7.9
2023-03-29T08:12:50.836Z,7.9
2023-03-29T08:14:03.982Z,7.9
2023-03-29T08:15:16.960Z,7.9
2023-03-29T08:16:30.609Z,7.9
2023-03-29T08:17:43.282Z,7.9
2023-03-29T08:18:55.828Z,7.9
2023-03-29T08:20:09.363Z,7.9
2023-03-29T08:21:21.942Z,8.1
2023-03-29T08:22:35.025Z,8.1
2023-03-29T08:23:47.919Z,8
2023-03-29T08:25:01.124Z,7.9
2023-03-29T08:26:13.946Z,8.1
2023-03-29T08:27:27.113Z,8.1
2023-03-29T08:28:39.968Z,8.1
2023-03-29T08:29:53.508Z,8.1
2023-03-29T08:31:06.240Z,8.1
2023-03-29T08:32:18.970Z,8.1
2023-03-29T08:33:32.001Z,8.3
2023-03-29T08:35:58.032Z,8.3
2023-03-29T08:37:10.670Z,8.3
2023-03-29T08:38:23.982Z,8.3
2023-03-29T08:39:36.784Z,8.4
2023-03-29T08:40:50.415Z,8.4
2023-03-29T08:44:29.001Z,8.4
2023-03-29T08:45:41.861Z,8.5
2023-03-29T08:46:54.764Z,8.5
2023-03-29T08:48:08.030Z,8.5
2023-03-29T08:50:34.019Z,8.7
2023-03-29T08:51:46.984Z,8.7
2023-03-29T08:53:00.412Z,8.7
2023-03-29T08:54:12.905Z,8.7
2023-03-29T08:55:26.074Z,8.8
2023-03-29T08:56:39.192Z,8.8
2023-03-29T08:57:51.677Z,8.8
2023-03-29T08:59:04.833Z,8.8
2023-03-29T09:01:31.046Z,8.9
2023-03-29T09:02:44.070Z,8.9
2023-03-29T09:03:56.912Z,8.9
2023-03-29T09:05:09.960Z,8.9
2023-03-29T09:06:23.288Z,9.1
2023-03-29T09:07:35.788Z,9.1
2023-03-29T09:08:49.007Z,9.1
2023-03-29T09:10:02.093Z,9.1
2023-03-29T09:12:28.040Z,9.2
2023-03-29T09:13:41.009Z,9.2
2023-03-29T09:14:54.012Z,9.2
2023-03-29T09:16:07.061Z,9.2
2023-03-29T09:17:19.791Z,9.2
2023-03-29T09:18:32.893Z,9.3
2023-03-29T09:19:45.924Z,9.3
2023-03-29T09:20:58.792Z,9.3
2023-03-29T09:22:12.021Z,9.4
2023-03-29T09:24:38.072Z,9.5
2023-03-29T09:25:53.285Z,9.6
2023-03-29T09:27:04.243Z,9.6
2023-03-29T09:28:16.952Z,9.7
2023-03-29T09:29:29.886Z,9.7
2023-03-29T09:30:42.831Z,9.7
2023-03-29T09:31:56.098Z,9.7
2023-03-29T09:33:09.028Z,9.8
2023-03-29T09:34:22.078Z,9.8
2023-03-29T09:35:34.930Z,10
2023-03-29T09:38:00.799Z,10.1
2023-03-29T09:39:14.063Z,10.1
2023-03-29T09:40:26.847Z,10.1
2023-03-29T09:41:40.263Z,10.2
2023-03-29T09:42:53.047Z,10.2
2023-03-29T09:44:05.746Z,10.2
2023-03-29T09:46:31.859Z,10.4
2023-03-29T09:47:45.235Z,10.4
2023-03-29T09:50:19.780Z,10.6
2023-03-29T09:51:24.374Z,10.7
2023-03-29T09:53:50.065Z,10.7
2023-03-29T09:55:03.479Z,10.7
2023-03-29T09:56:15.925Z,10.7
2023-03-29T09:57:28.997Z,10.7
2023-03-29T09:58:42.424Z,10.9
2023-03-29T10:01:08.472Z,11.1
2023-03-29T10:02:21.455Z,11.1
2023-03-29T10:06:00.016Z,11.2
2023-03-29T10:07:13.014Z,11.2
2023-03-29T10:08:25.909Z,11.2
2023-03-29T10:09:38.840Z,11.2
2023-03-29T10:12:04.701Z,11.3
2023-03-29T10:15:44.017Z,11.4
2023-03-29T10:16:57.032Z,11.4
2023-03-29T10:18:10.444Z,11.5
2023-03-29T10:19:23.025Z,11.6
2023-03-29T10:20:36.027Z,11.6
2023-03-29T10:21:49.525Z,11.7
2023-03-29T10:23:01.761Z,11.7
2023-03-29T10:24:15.027Z,11.8
2023-03-29T10:25:27.844Z,11.8
2023-03-29T10:26:41.051Z,11.8
2023-03-29T10:27:53.762Z,11.8
2023-03-29T10:30:20.107Z,12
2023-03-29T10:31:32.975Z,12
2023-03-29T10:32:46.089Z,12
2023-03-29T10:33:58.752Z,11.9
2023-03-29T10:37:38.211Z,12.2
2023-03-29T10:38:50.924Z,12.2
2023-03-29T10:41:16.954Z,12.2
2023-03-29T10:42:29.744Z,12.2
2023-03-29T10:43:42.716Z,12.4
2023-03-29T10:47:21.795Z,12.7
2023-03-29T10:49:48.135Z,12.8
2023-03-29T10:54:39.961Z,13
2023-03-29T10:57:06.017Z,13.2
2023-03-29T11:03:12.516Z,13.6
2023-03-29T11:04:24.077Z,13.6
2023-03-29T11:09:15.922Z,13.8
2023-03-29T11:10:29.389Z,13.8
2023-03-29T11:12:55.276Z,13.8
2023-03-29T11:14:08.244Z,13.8
2023-03-29T11:15:20.787Z,13.8
2023-03-29T11:17:47.525Z,13.9
2023-03-29T11:18:59.936Z,13.9
2023-03-29T11:21:25.745Z,14.1
2023-03-29T11:22:39.705Z,14.3
2023-03-29T11:25:05.188Z,14.4
2023-03-29T11:29:57.443Z,14.7
2023-03-29T11:31:09.755Z,14.7
2023-03-29T11:32:22.705Z,14.7
2023-03-29T11:36:02.044Z,14.6
2023-03-29T11:38:27.926Z,14.6
2023-03-29T11:39:41.845Z,14.6
2023-03-29T11:40:54.272Z,14.4
2023-03-29T11:42:07.873Z,14.4
2023-03-29T11:44:33.268Z,14.4
2023-03-29T11:49:25.431Z,14.6
2023-03-29T11:50:37.736Z,14.6
2023-03-29T11:51:51.715Z,14.6
2023-03-29T11:53:03.879Z,14.6
2023-03-29T12:01:34.943Z,14.4
2023-03-29T12:02:48.075Z,14.4
2023-03-29T12:04:01.103Z,14.4
2023-03-29T12:10:06.111Z,14.6
2023-03-29T12:12:31.855Z,14.6
2023-03-29T12:13:45.068Z,14.7
2023-03-29T12:14:57.981Z,14.7
2023-03-29T12:16:10.748Z,14.7
2023-03-29T12:22:16.061Z,14.8
2023-03-29T12:23:29.250Z,14.8
2023-03-29T12:28:21.239Z,14.9
2023-03-29T12:29:34.130Z,14.9
2023-03-29T12:31:59.920Z,15.1
2023-03-29T12:33:15.200Z,15.1
2023-03-29T12:40:30.793Z,15.4
2023-03-29T12:49:02.296Z,15.8
2023-03-29T12:56:20.077Z,15.7
2023-03-29T12:57:33.074Z,15.7
2023-03-29T13:04:51.200Z,15.8
2023-03-29T13:09:43.276Z,15.9
2023-03-29T13:14:34.982Z,16.1
2023-03-29T13:15:47.810Z,16.1
2023-03-29T13:17:08.733Z,16.1
2023-03-29T13:18:13.872Z,16.2
2023-03-29T13:26:45.249Z,16.2
2023-03-29T13:37:42.343Z,15.9
2023-03-29T13:40:08.307Z,15.9
2023-03-29T13:41:20.768Z,15.9
2023-03-29T13:42:33.988Z,15.7
2023-03-29T13:43:47.714Z,15.7
2023-03-29T13:44:59.929Z,15.7
2023-03-29T13:47:26.063Z,15.8
2023-03-29T13:57:10.082Z,15.7
2023-03-29T13:58:23.038Z,15.7
2023-03-29T13:59:36.007Z,15.8
2023-03-29T14:00:48.879Z,15.8
2023-03-29T14:02:02.082Z,15.8
2023-03-29T14:03:15.065Z,15.9
2023-03-29T14:04:28.041Z,15.7
2023-03-29T14:05:41.055Z,15.8
2023-03-29T14:06:54.027Z,15.9
2023-03-29T14:08:07.058Z,15.9
2023-03-29T14:09:20.020Z,15.9
2023-03-29T14:10:33.028Z,16
2023-03-29T14:11:46.044Z,16.1
2023-03-29T14:12:59.021Z,16.1
2023-03-29T14:14:12.031Z,16.1
2023-03-29T14:15:25.162Z,16.1
2023-03-29T14:16:38.100Z,16.1
2023-03-29T14:17:51.215Z,16.1
2023-03-29T14:19:04.045Z,16.1
2023-03-29T14:20:17.038Z,16.1
2023-03-29T14:21:30.011Z,16.1
2023-03-29T14:22:42.969Z,16.1
2023-03-29T14:23:56.026Z,16.1
2023-03-29T14:25:08.944Z,16.1
2023-03-29T14:26:22.042Z,16.1
2023-03-29T14:27:35.005Z,16.1
2023-03-29T14:28:48.220Z,16.1
2023-03-29T14:30:01.082Z,16.1
2023-03-29T14:31:14.115Z,16.1
2023-03-29T14:32:27.136Z,16.1
2023-03-29T14:33:40.026Z,16.1
2023-03-29T14:34:53.022Z,16.1
2023-03-29T14:36:06.415Z,16.2
2023-03-29T14:37:19.019Z,16.2
2023-03-29T14:38:32.025Z,16.2
2023-03-29T14:39:45.037Z,16.1
2023-03-29T14:40:58.013Z,16.1
2023-03-29T14:42:11.180Z,16.1
2023-03-29T14:43:24.101Z,16.1
2023-03-29T14:44:37.035Z,16.2
2023-03-29T14:45:50.041Z,16.2
2023-03-29T14:47:03.013Z,16.2
2023-03-29T14:48:16.018Z,16.2
2023-03-29T14:49:29.044Z,16.2
2023-03-29T14:50:42.105Z,16.2
2023-03-29T14:51:55.030Z,16.2
2023-03-29T14:53:08.069Z,16.2
2023-03-29T14:54:21.141Z,16.2
2023-03-29T14:55:34.004Z,16.2
2023-03-29T14:56:47.107Z,16.2
2023-03-29T14:58:00.164Z,16.2
2023-03-29T14:59:13.042Z,16.2
2023-03-29T15:00:26.007Z,16.2
2023-03-29T15:01:39.006Z,16.2
2023-03-29T15:02:52.101Z,16.2
2023-03-29T15:04:05.035Z,16.2
2023-03-29T15:05:18.135Z,16.2
2023-03-29T15:06:31.355Z,16.2
2023-03-29T15:07:44.161Z,16.2
2023-03-29T15:09:04.801Z,16.2
2023-03-29T15:10:10.022Z,16.2
2023-03-29T15:11:23.052Z,16.2
2023-03-29T15:12:36.161Z,16.2
2023-03-29T15:13:49.165Z,16.2
2023-03-29T15:15:02.159Z,16.2
2023-03-29T15:16:15.088Z,16.2
2023-03-29T15:17:33.437Z,16.2
2023-03-29T15:18:40.890Z,16.2
2023-03-29T15:19:54.341Z,16.2
2023-03-29T15:21:06.935Z,16.2
2023-03-29T15:22:20.001Z,16.2
2023-03-29T15:23:33.235Z,16.2
2023-03-29T15:24:45.992Z,16.2
2023-03-29T15:25:58.993Z,16.2
2023-03-29T15:27:12.001Z,16.2
2023-03-29T15:28:25.000Z,16.2
2023-03-29T15:29:39.040Z,16.2
2023-03-29T15:30:57.483Z,16.1
2023-03-29T15:32:04.100Z,16.1
2023-03-29T15:33:17.118Z,16.1
2023-03-29T15:34:30.080Z,16.1
2023-03-29T15:35:43.182Z,16.1
2023-03-29T15:36:56.189Z,16.1
2023-03-29T15:38:08.992Z,16.1
2023-03-29T15:39:22.055Z,16.1
2023-03-29T15:40:35.180Z,15.9
2023-03-29T15:41:48.016Z,15.9
2023-03-29T15:43:01.115Z,15.9
2023-03-29T15:44:13.839Z,15.9
2023-03-29T15:45:27.087Z,15.9
2023-03-29T15:46:40.037Z,15.9
2023-03-29T15:47:53.062Z,15.7
2023-03-29T15:49:06.018Z,15.8
2023-03-29T15:50:19.027Z,15.8
2023-03-29T15:51:31.899Z,15.8
2023-03-29T15:52:45.002Z,15.8
2023-03-29T15:53:57.659Z,15.8
2023-03-29T15:55:11.002Z,15.8
2023-03-29T15:56:24.033Z,15.8
2023-03-29T15:57:37.087Z,15.8
2023-03-29T15:58:49.867Z,15.8
2023-03-29T16:00:02.904Z,15.8
2023-03-29T16:01:16.200Z,15.8
2023-03-29T16:02:28.971Z,15.8
2023-03-29T16:03:42.167Z,15.8
2023-03-29T16:04:55.031Z,15.8
2023-03-29T16:06:08.038Z,15.8
2023-03-29T16:07:21.052Z,15.8
2023-03-29T16:08:33.962Z,15.8
2023-03-29T16:09:47.195Z,15.8
2023-03-29T16:11:00.160Z,15.8
2023-03-29T16:12:13.007Z,15.8
2023-03-29T16:13:26.339Z,15.8
2023-03-29T16:14:38.973Z,15.8
2023-03-29T16:15:52.135Z,15.8
2023-03-29T16:21:56.872Z,15.8
2023-03-29T16:23:09.986Z,15.8
2023-03-29T17:05:44.779Z,15.3
2023-03-29T17:13:03.360Z,15.1
2023-03-29T17:17:54.662Z,15.2
2023-03-29T17:21:33.573Z,15.2
2023-03-29T17:55:38.054Z,14.9
2023-03-29T18:01:42.684Z,14.7
2023-03-29T18:12:39.803Z,14.6
2023-03-29T18:23:37.077Z,14.3
2023-03-29T18:34:33.915Z,14.1
2023-03-29T18:35:47.298Z,14.2
2023-03-29T18:39:26.313Z,14.2
2023-03-29T18:57:40.659Z,14
2023-03-29T19:09:50.576Z,13.8
2023-03-29T19:25:40.425Z,13.8
2023-03-29T19:40:16.304Z,13.6
2023-03-29T19:43:54.641Z,13.6
2023-03-29T19:51:12.692Z,13.6
2023-03-29T20:00:56.616Z,13.6
2023-03-29T20:08:14.635Z,13.5
2023-03-29T20:09:28.526Z,13.5
2023-03-29T20:15:33.265Z,13.3
2023-03-29T20:19:11.585Z,13.3
2023-03-29T20:20:24.958Z,13.3
2023-03-29T20:26:30.564Z,13.2
2023-03-29T20:32:35.342Z,13.1
2023-03-29T20:33:47.904Z,13.1
2023-03-29T20:35:00.965Z,13.1
2023-03-29T20:38:39.926Z,13.1
2023-03-29T20:39:52.773Z,13.1
2023-03-29T20:41:06.102Z,13.1
2023-03-29T20:43:32.595Z,12.9
2023-03-29T20:45:57.919Z,12.9
2023-03-29T20:47:11.296Z,12.9
2023-03-29T20:50:49.684Z,12.9
2023-03-29T20:52:03.755Z,12.9
2023-03-29T20:54:28.612Z,12.8
2023-03-29T20:55:41.653Z,12.8
2023-03-29T20:58:07.918Z,12.8
2023-03-29T21:00:33.882Z,12.8
2023-03-29T21:02:59.672Z,12.8
2023-03-29T21:05:25.699Z,12.8
2023-03-29T21:06:38.835Z,12.8
2023-03-29T21:10:18.405Z,12.8
2023-03-29T21:11:30.680Z,12.8
2023-03-29T21:13:57.019Z,12.8
2023-03-29T21:15:10.357Z,12.8
2023-03-29T21:18:48.545Z,12.7
2023-03-29T21:21:14.702Z,12.7
2023-03-29T21:23:41.038Z,12.7
2023-03-29T21:26:06.621Z,12.7
2023-03-29T21:29:45.609Z,12.7
2023-03-29T21:37:04.039Z,12.7
2023-03-29T21:38:16.738Z,12.7
2023-03-29T21:41:56.009Z,12.5
2023-03-29T22:06:15.634Z,12.4
2023-03-29T22:16:00.205Z,12.4
2023-03-29T22:17:12.613Z,12.4
2023-03-29T22:19:38.671Z,12.4
2023-03-29T22:23:17.577Z,12.4
2023-03-29T22:29:23.110Z,12.2
2023-03-29T22:34:15.220Z,12.2
2023-03-29T22:35:27.916Z,12.2
2023-03-29T22:39:06.698Z,12.2
2023-03-29T22:40:19.586Z,12.2
2023-03-29T22:41:32.861Z,12.2
2023-03-29T22:43:59.428Z,12.2
2023-03-29T22:51:17.501Z,12.2
2023-03-29T22:57:22.316Z,12.2
2023-03-29T22:58:34.589Z,12.2
2023-03-29T22:59:47.768Z,12.2
2023-03-29T23:03:26.941Z,12
2023-03-29T23:05:52.739Z,12
2023-03-29T23:07:05.662Z,12
2023-03-29T23:13:10.734Z,11.9
2023-03-29T23:14:23.619Z,11.8
2023-03-29T23:16:49.908Z,12
2023-03-29T23:20:28.893Z,11.8
2023-03-29T23:21:42.183Z,11.9
2023-03-29T23:22:54.712Z,11.9
2023-03-29T23:26:34.065Z,12
2023-03-29T23:27:47.395Z,12
2023-03-29T23:31:25.660Z,12
2023-03-29T23:33:51.639Z,12
2023-03-29T23:36:17.781Z,12
2023-03-29T23:37:30.694Z,12
2023-03-29T23:38:44.342Z,12
2023-03-29T23:41:10.475Z,12.2
2023-03-29T23:54:32.650Z,12.2
2023-03-29T23:56:58.910Z,12.3
2023-03-29T23:58:11.871Z,12.3
2023-03-29T23:59:24.751Z,12.2
